Time;durP1;ratioP1;P1;durP2;ratioP2;P2;SDS_P1;SDS_P2;PMS_P1;PMS_P2;Temp;Humidity;BMP_temperature;BMP_pressure;BME280_temperature;BME280_humidity;BME280_pressure;Samples;Min_cycle;Max_cycle;Signal;HPM_P1;HPM_P2
2023/05/15 00:00:43;;;;;;;5.65;3.83;;;18.50;67.50;;;;;;5108643;27;20248;-83
2023/05/15 00:03:32;;;;;;;5.38;3.92;;;18.40;67.80;;;;;;5097636;27;20222;-83
2023/05/15 00:06:23;;;;;;;5.13;3.78;;;18.50;68.00;;;;;;5104428;27;20222;-79
2023/05/15 00:09:11;;;;;;;5.65;4.00;;;18.40;67.80;;;;;;5087618;28;20222;-76
2023/05/15 00:12:00;;;;;;;9.73;3.85;;;18.50;68.10;;;;;;5087853;28;20211;-77
2023/05/15 00:14:49;;;;;;;8.70;4.20;;;18.40;68.30;;;;;;5076506;28;20227;-76
2023/05/15 00:17:38;;;;;;;8.15;3.75;;;18.50;68.00;;;;;;5073670;28;20314;-76
2023/05/15 00:20:26;;;;;;;5.88;4.10;;;18.50;68.00;;;;;;5098053;27;20230;-77
2023/05/15 00:23:16;;;;;;;6.85;3.80;;;18.40;68.50;;;;;;5086673;28;20226;-77
2023/05/15 00:26:05;;;;;;;6.32;3.55;;;18.50;68.40;;;;;;5085057;28;20227;-76
2023/05/15 00:28:54;;;;;;;7.75;3.80;;;18.40;67.80;;;;;;5084221;28;20257;-76
2023/05/15 00:31:44;;;;;;;7.13;3.42;;;18.20;68.70;;;;;;5082753;28;20228;-73
2023/05/15 00:34:33;;;;;;;4.63;3.70;;;18.20;68.40;;;;;;5091186;28;20233;-73
2023/05/15 00:37:23;;;;;;;8.73;4.15;;;18.20;68.70;;;;;;5114976;27;20218;-74
2023/05/15 00:40:20;;;;;;;7.07;3.95;;;18.30;68.90;;;;;;5091908;27;20249;-74
2023/05/15 00:43:11;;;;;;;6.70;3.80;;;18.20;68.60;;;;;;5066976;28;20274;-74
2023/05/15 00:46:00;;;;;;;6.20;3.40;;;18.30;68.40;;;;;;5087351;28;20773;-74
2023/05/15 00:48:50;;;;;;;6.22;3.75;;;18.20;68.70;;;;;;5064932;28;20227;-74
2023/05/15 00:51:41;;;;;;;6.47;3.55;;;18.10;68.50;;;;;;5076662;28;20250;-74
2023/05/15 00:54:30;;;;;;;5.07;3.35;;;18.20;69.00;;;;;;5094468;27;20292;-74
2023/05/15 00:57:23;;;;;;;6.00;3.67;;;18.00;68.70;;;;;;5074113;28;20702;-75
2023/05/15 01:00:15;;;;;;;5.82;3.33;;;17.90;68.60;;;;;;5079335;28;20724;-74
2023/05/15 01:03:05;;;;;;;5.85;3.70;;;17.90;69.00;;;;;;5069511;28;20227;-74
2023/05/15 01:05:54;;;;;;;5.63;3.28;;;17.90;68.80;;;;;;5084610;28;20322;-76
2023/05/15 01:08:45;;;;;;;9.07;3.47;;;17.70;68.80;;;;;;5090089;28;20322;-73
2023/05/15 01:11:37;;;;;;;6.68;3.25;;;17.60;69.10;;;;;;5072482;28;20223;-78
2023/05/15 01:14:28;;;;;;;9.20;3.28;;;17.60;69.70;;;;;;5093545;28;20720;-74
2023/05/15 01:17:16;;;;;;;4.88;3.38;;;17.80;69.80;;;;;;5068167;28;20303;-75
2023/05/15 01:20:09;;;;;;;4.90;3.30;;;17.70;68.90;;;;;;5066095;28;20228;-76
2023/05/15 01:23:11;;;;;;;7.00;3.33;;;17.70;69.20;;;;;;5091993;28;20265;-78
2023/05/15 01:26:40;;;;;;;4.13;3.03;;;17.70;69.30;;;;;;5083954;28;20279;-77
2023/05/15 01:29:35;;;;;;;7.10;3.10;;;17.50;69.60;;;;;;5070667;28;20219;-72
2023/05/15 01:32:29;;;;;;;4.43;3.38;;;17.70;69.60;;;;;;5102438;28;20340;-77
2023/05/15 01:35:27;;;;;;;8.10;3.60;;;17.80;69.30;;;;;;5095131;28;20227;-78
2023/05/15 01:38:22;;;;;;;4.40;3.40;;;17.80;69.30;;;;;;5093195;28;20230;-79
2023/05/15 01:41:22;;;;;;;5.63;3.10;;;17.80;69.40;;;;;;5096484;27;20227;-81
2023/05/15 01:44:22;;;;;;;5.43;3.22;;;17.80;69.60;;;;;;5087448;28;20757;-79
2023/05/15 01:47:15;;;;;;;5.90;3.17;;;17.60;69.80;;;;;;5094072;28;20233;-77
2023/05/15 01:50:06;;;;;;;7.45;3.00;;;17.50;70.20;;;;;;5103936;28;20738;-76
2023/05/15 01:52:58;;;;;;;6.80;3.10;;;17.50;70.10;;;;;;5096250;28;20706;-75
2023/05/15 01:55:50;;;;;;;5.13;3.47;;;17.30;70.40;;;;;;5105855;28;20348;-77
2023/05/15 01:58:40;;;;;;;6.40;3.15;;;17.00;71.00;;;;;;5114656;27;20301;-77
2023/05/15 02:01:30;;;;;;;4.85;3.30;;;17.10;71.20;;;;;;5112832;27;20227;-77
2023/05/15 02:04:26;;;;;;;4.47;3.38;;;17.20;71.30;;;;;;5096350;28;20314;-77
2023/05/15 02:07:16;;;;;;;6.85;3.30;;;17.20;71.20;;;;;;5083692;28;20969;-77
2023/05/15 02:10:06;;;;;;;7.88;3.22;;;17.30;71.10;;;;;;5095176;28;20718;-77
2023/05/15 02:12:56;;;;;;;6.80;3.63;;;17.10;72.00;;;;;;5095286;28;20753;-77
2023/05/15 02:15:45;;;;;;;5.03;3.10;;;17.20;71.40;;;;;;5113936;27;20214;-77
2023/05/15 02:18:34;;;;;;;8.95;3.20;;;17.20;71.50;;;;;;5095920;27;20598;-77
2023/05/15 02:21:25;;;;;;;7.15;3.40;;;17.30;71.70;;;;;;5088603;28;20242;-75
2023/05/15 02:24:14;;;;;;;6.38;3.30;;;17.20;72.20;;;;;;5091553;28;20230;-75
2023/05/15 02:27:09;;;;;;;6.68;3.00;;;17.20;71.50;;;;;;5103807;27;20765;-77
2023/05/15 02:30:16;;;;;;;5.65;3.17;;;17.40;72.10;;;;;;5100996;27;20827;-76
2023/05/15 02:33:18;;;;;;;3.97;3.33;;;17.40;71.20;;;;;;5108568;27;20236;-77
2023/05/15 02:36:09;;;;;;;5.93;3.42;;;17.50;71.40;;;;;;5098070;27;20219;-76
2023/05/15 02:39:00;;;;;;;6.60;3.30;;;17.60;71.60;;;;;;5098620;27;20211;-74
2023/05/15 02:41:51;;;;;;;6.03;3.97;;;17.50;71.60;;;;;;5089374;27;20219;-72
2023/05/15 02:44:41;;;;;;;5.28;3.65;;;17.50;71.50;;;;;;5087440;27;20852;-75
2023/05/15 02:47:33;;;;;;;7.72;3.47;;;17.60;71.80;;;;;;5102827;27;20228;-76
2023/05/15 02:50:22;;;;;;;5.63;3.75;;;17.60;71.60;;;;;;5107500;28;20253;-75
2023/05/15 02:53:13;;;;;;;4.78;3.45;;;17.60;71.70;;;;;;5089169;28;20252;-78
2023/05/15 02:56:03;;;;;;;6.55;3.03;;;17.50;71.60;;;;;;5111150;27;20219;-78
2023/05/15 02:58:52;;;;;;;9.23;3.65;;;17.60;71.90;;;;;;5094067;28;20223;-78
2023/05/15 03:01:41;;;;;;;5.35;3.40;;;17.60;72.00;;;;;;5088591;28;20716;-76
2023/05/15 03:04:30;;;;;;;7.28;3.28;;;17.50;72.20;;;;;;5106177;27;20710;-76
2023/05/15 03:07:19;;;;;;;5.38;3.25;;;17.60;72.20;;;;;;5103155;27;20219;-76
2023/05/15 03:10:09;;;;;;;5.82;3.20;;;17.40;72.00;;;;;;5091159;28;20285;-79
2023/05/15 03:12:59;;;;;;;6.15;3.35;;;17.50;72.60;;;;;;5091846;27;20211;-73
2023/05/15 03:15:48;;;;;;;9.38;3.47;;;17.50;72.80;;;;;;5090088;28;20310;-71
2023/05/15 03:18:37;;;;;;;5.85;3.17;;;17.60;72.50;;;;;;5106228;27;20733;-71
2023/05/15 03:21:26;;;;;;;9.80;3.50;;;17.60;72.20;;;;;;5086733;27;20234;-75
2023/05/15 03:24:15;;;;;;;9.00;3.33;;;17.50;72.40;;;;;;5109679;27;20699;-75
2023/05/15 03:27:04;;;;;;;8.35;3.40;;;17.40;72.40;;;;;;5092956;28;20244;-76
2023/05/15 03:29:55;;;;;;;4.80;3.20;;;;;;;;;;5093558;27;20230;-80
2023/05/15 03:32:43;;;;;;;8.55;3.47;;;17.40;72.00;;;;;;5091756;28;20231;-80
2023/05/15 03:35:32;;;;;;;5.07;3.42;;;17.50;72.60;;;;;;5091984;27;20574;-77
2023/05/15 03:38:22;;;;;;;6.47;3.40;;;17.40;72.80;;;;;;5089919;28;20404;-77
2023/05/15 03:41:11;;;;;;;4.78;3.05;;;17.40;72.80;;;;;;5098008;27;20689;-77
2023/05/15 03:44:00;;;;;;;6.25;3.17;;;17.40;72.80;;;;;;5084513;27;20229;-77
2023/05/15 03:46:50;;;;;;;7.97;3.30;;;17.40;72.60;;;;;;5093897;28;20215;-81
2023/05/15 03:49:39;;;;;;;4.88;3.53;;;17.30;72.80;;;;;;5104409;28;20719;-83
2023/05/15 03:52:28;;;;;;;4.75;3.30;;;17.40;72.80;;;;;;5093235;28;20642;-76
2023/05/15 03:55:17;;;;;;;6.40;3.22;;;17.40;72.60;;;;;;5079870;28;20238;-76
2023/05/15 03:58:06;;;;;;;12.43;3.55;;;17.40;73.10;;;;;;5111225;28;20298;-76
2023/05/15 04:00:55;;;;;;;5.28;3.33;;;17.50;73.30;;;;;;5099960;28;20594;-77
2023/05/15 04:03:45;;;;;;;4.57;3.38;;;17.50;72.90;;;;;;5104336;28;20230;-76
2023/05/15 04:06:34;;;;;;;5.53;3.08;;;17.50;73.50;;;;;;5090120;28;20238;-77
2023/05/15 04:09:23;;;;;;;4.80;3.50;;;17.50;74.00;;;;;;5108627;28;20739;-77
2023/05/15 04:12:11;;;;;;;9.15;3.50;;;17.60;74.70;;;;;;5117616;28;20226;-85
2023/05/15 04:15:14;;;;;;;5.93;3.70;;;17.50;73.70;;;;;;5099907;28;20226;-82
2023/05/15 04:18:03;;;;;;;6.88;3.40;;;17.50;73.20;;;;;;5121173;28;21894;-80
2023/05/15 04:20:56;;;;;;;5.75;3.38;;;17.30;74.20;;;;;;5107703;28;20219;-80
2023/05/15 04:23:45;;;;;;;5.32;3.30;;;17.30;74.60;;;;;;5118590;28;20215;-79
2023/05/15 04:26:35;;;;;;;6.30;3.53;;;17.40;74.50;;;;;;5108830;28;20774;-84
2023/05/15 04:29:24;;;;;;;4.43;3.30;;;17.40;75.50;;;;;;5116781;28;20360;-88
2023/05/15 04:32:13;;;;;;;4.45;3.20;;;17.50;78.40;;;;;;5091082;28;20753;-82
2023/05/15 04:35:05;;;;;;;7.35;3.38;;;17.50;76.40;;;;;;5093912;28;20215;-82
2023/05/15 04:37:55;;;;;;;6.03;3.45;;;17.40;75.70;;;;;;5095323;28;20218;-81
2023/05/15 04:40:44;;;;;;;6.40;3.50;;;17.40;75.90;;;;;;5106524;28;20740;-81
2023/05/15 04:43:32;;;;;;;5.20;3.50;;;17.30;76.60;;;;;;5109794;27;20215;-79
2023/05/15 04:46:21;;;;;;;10.07;3.75;;;17.40;75.80;;;;;;5109230;27;20215;-76
2023/05/15 04:49:11;;;;;;;8.80;3.58;;;17.40;76.30;;;;;;5088963;28;20222;-75
2023/05/15 04:52:00;;;;;;;5.90;3.63;;;17.30;77.60;;;;;;5087674;28;20210;-88
2023/05/15 04:54:51;;;;;;;7.05;3.78;;;17.10;76.80;;;;;;5096561;27;20222;-81
2023/05/15 04:57:40;;;;;;;7.07;3.40;;;17.20;77.30;;;;;;5113001;27;20222;-83
2023/05/15 05:00:29;;;;;;;5.78;3.40;;;17.20;77.30;;;;;;5086242;28;20226;-81
2023/05/15 05:03:18;;;;;;;3.78;2.75;;;17.30;77.30;;;;;;5092118;27;20304;-78
2023/05/15 05:06:08;;;;;;;7.20;3.90;;;17.20;76.40;;;;;;5114496;27;20229;-80
2023/05/15 05:08:56;;;;;;;6.47;3.55;;;17.10;76.60;;;;;;5115649;27;20219;-80
2023/05/15 05:11:47;;;;;;;7.28;3.50;;;17.10;77.20;;;;;;5102249;28;20226;-80
2023/05/15 05:14:36;;;;;;;7.97;3.33;;;17.00;77.40;;;;;;5095862;28;20325;-81
2023/05/15 05:17:25;;;;;;;6.60;3.60;;;17.10;77.70;;;;;;5110890;28;20225;-80
2023/05/15 05:20:14;;;;;;;8.68;3.38;;;17.20;79.30;;;;;;5111616;27;20615;-72
2023/05/15 05:23:03;;;;;;;10.23;3.80;;;17.20;79.10;;;;;;5101387;27;22508;-71
2023/05/15 05:25:51;;;;;;;5.40;3.45;;;17.30;78.20;;;;;;5109614;27;20230;-71
2023/05/15 05:28:41;;;;;;;6.65;3.58;;;17.20;78.90;;;;;;5109227;27;20244;-72
2023/05/15 05:31:30;;;;;;;8.75;3.38;;;17.00;78.80;;;;;;5089889;28;20222;-75
2023/05/15 05:34:20;;;;;;;7.15;3.50;;;17.20;78.60;;;;;;5108431;27;20232;-73
2023/05/15 05:37:09;;;;;;;5.68;3.33;;;17.00;78.30;;;;;;5111417;27;20337;-73
2023/05/15 05:39:58;;;;;;;12.82;3.95;;;17.10;78.90;;;;;;5101959;28;20229;-73
2023/05/15 05:42:46;;;;;;;5.93;3.35;;;17.20;78.10;;;;;;5112971;27;20222;-72
2023/05/15 05:45:37;;;;;;;10.15;3.70;;;17.00;77.70;;;;;;5103701;28;20223;-73
2023/05/15 05:48:26;;;;;;;5.90;3.38;;;17.10;79.00;;;;;;5109501;27;20679;-79
2023/05/15 05:51:15;;;;;;;5.60;3.47;;;17.00;79.10;;;;;;5099955;28;20222;-76
2023/05/15 05:54:04;;;;;;;8.00;3.10;;;17.10;80.60;;;;;;5083087;28;20227;-74
2023/05/15 05:56:53;;;;;;;9.10;3.70;;;17.10;80.10;;;;;;5097342;27;20690;-77
2023/05/15 05:59:42;;;;;;;8.52;4.07;;;17.10;81.60;;;;;;5112472;27;20713;-77
2023/05/15 06:02:33;;;;;;;10.23;3.60;;;17.10;81.30;;;;;;5106534;28;20207;-79
2023/05/15 06:05:22;;;;;;;7.57;4.07;;;17.10;81.50;;;;;;5091876;28;20489;-79
2023/05/15 06:08:11;;;;;;;6.25;3.97;;;17.00;82.40;;;;;;5094522;27;20218;-74
2023/05/15 06:11:00;;;;;;;7.00;3.60;;;17.00;83.70;;;;;;5105069;27;20215;-76
2023/05/15 06:13:50;;;;;;;6.32;3.78;;;16.90;84.50;;;;;;5093334;27;20222;-77
2023/05/15 06:16:39;;;;;;;4.28;3.65;;;16.80;86.30;;;;;;5104431;27;20222;-73
2023/05/15 06:19:29;;;;;;;6.03;3.90;;;16.70;87.60;;;;;;5090535;28;20598;-73
2023/05/15 06:22:18;;;;;;;8.02;4.20;;;16.70;87.80;;;;;;5102973;27;20226;-76
2023/05/15 06:25:12;;;;;;;10.20;3.97;;;16.70;87.90;;;;;;5105787;28;20223;-80
2023/05/15 06:28:01;;;;;;;8.15;3.80;;;16.80;89.10;;;;;;5100732;28;20219;-76
2023/05/15 06:30:50;;;;;;;5.68;3.67;;;16.80;90.40;;;;;;5089527;28;20728;-79
2023/05/15 06:33:39;;;;;;;6.15;3.58;;;16.70;91.10;;;;;;5104646;28;20242;-78
2023/05/15 06:36:29;;;;;;;6.60;4.45;;;16.60;91.90;;;;;;5088689;28;20223;-78
2023/05/15 06:39:18;;;;;;;7.35;4.25;;;16.50;93.20;;;;;;5103258;28;20589;-78
2023/05/15 06:42:07;;;;;;;8.05;4.53;;;16.30;94.30;;;;;;5075511;28;20224;-77
2023/05/15 06:44:56;;;;;;;10.63;5.18;;;16.20;96.00;;;;;;5067581;28;20782;-80
2023/05/15 06:47:45;;;;;;;12.30;5.07;;;16.20;98.60;;;;;;5101850;28;20245;-76
2023/05/15 06:50:34;;;;;;;10.00;5.28;;;16.20;99.70;;;;;;5082824;28;20234;-77
2023/05/15 06:53:24;;;;;;;8.48;5.10;;;16.10;99.90;;;;;;5104837;28;20539;-79
2023/05/15 06:56:13;;;;;;;10.23;4.97;;;16.10;99.90;;;;;;5085840;28;20220;-82
2023/05/15 06:59:02;;;;;;;10.00;5.15;;;16.00;99.90;;;;;;5087686;28;20222;-79
2023/05/15 07:01:50;;;;;;;6.20;5.25;;;15.90;99.90;;;;;;5087490;28;20808;-79
2023/05/15 07:04:39;;;;;;;7.80;5.80;;;15.70;99.90;;;;;;5093030;28;20295;-75
2023/05/15 07:07:28;;;;;;;13.25;5.90;;;15.70;99.90;;;;;;5094541;27;20211;-76
2023/05/15 07:10:19;;;;;;;11.95;6.40;;;15.40;99.90;;;;;;5085911;28;20867;-76
2023/05/15 07:13:08;;;;;;;9.55;6.05;;;15.30;99.90;;;;;;5085195;28;20224;-78
2023/05/15 07:15:56;;;;;;;13.65;7.30;;;15.30;99.90;;;;;;5086739;28;20219;-78
2023/05/15 07:18:45;;;;;;;12.13;7.63;;;15.00;99.90;;;;;;5081778;28;20218;-80
2023/05/15 07:21:35;;;;;;;9.23;6.85;;;15.00;99.90;;;;;;5105201;28;20258;-79
2023/05/15 07:24:23;;;;;;;10.40;8.57;;;14.80;99.90;;;;;;5080964;28;20700;-78
2023/05/15 07:27:14;;;;;;;15.88;9.35;;;14.80;99.90;;;;;;5081663;28;20235;-83
2023/05/15 07:30:04;;;;;;;14.55;8.57;;;14.90;99.90;;;;;;5085678;28;20215;-80
2023/05/15 07:32:52;;;;;;;14.82;9.18;;;14.70;99.90;;;;;;5094651;28;20228;-81
2023/05/15 07:35:41;;;;;;;11.25;9.73;;;14.80;99.90;;;;;;5083906;28;20742;-80
2023/05/15 07:38:31;;;;;;;19.70;8.57;;;14.90;99.90;;;;;;5088096;28;20209;-79
2023/05/15 07:41:20;;;;;;;15.52;9.38;;;14.80;99.90;;;;;;5096688;28;20298;-81
2023/05/15 07:44:11;;;;;;;11.77;7.68;;;15.10;99.90;;;;;;5086560;28;20592;-79
2023/05/15 07:47:00;;;;;;;10.38;7.63;;;15.00;99.90;;;;;;5089587;28;20560;-79
2023/05/15 07:49:48;;;;;;;10.18;8.05;;;14.90;99.90;;;;;;5096208;28;20227;-77
2023/05/15 07:52:37;;;;;;;9.07;7.40;;;15.00;99.90;;;;;;5082026;28;20238;-78
2023/05/15 07:55:26;;;;;;;11.00;9.18;;;14.90;99.90;;;;;;5067142;28;20223;-79
2023/05/15 07:58:16;;;;;;;13.52;9.40;;;15.10;99.90;;;;;;5072699;28;20219;-84
2023/05/15 08:01:06;;;;;;;14.80;7.97;;;15.30;99.90;;;;;;5080426;28;20223;-84
2023/05/15 08:03:56;;;;;;;12.40;7.43;;;15.30;99.90;;;;;;5084092;28;20596;-82
2023/05/15 08:06:46;;;;;;;12.00;7.47;;;15.50;99.90;;;;;;5081600;28;20438;-78
2023/05/15 08:09:34;;;;;;;12.25;8.60;;;15.30;99.90;;;;;;5071047;28;20844;-79
2023/05/15 08:12:23;;;;;;;12.35;8.57;;;15.50;99.90;;;;;;5082445;28;20234;-79
2023/05/15 08:15:12;;;;;;;11.48;7.90;;;15.60;99.90;;;;;;5063099;28;20220;-84
2023/05/15 08:18:07;;;;;;;8.60;7.70;;;15.60;99.90;;;;;;5056914;28;20357;-80
2023/05/15 08:20:56;;;;;;;11.07;7.50;;;15.50;99.90;;;;;;5081426;28;20230;-84
2023/05/15 08:23:45;;;;;;;9.68;7.45;;;15.50;99.90;;;;;;5088382;28;20231;-84
2023/05/15 08:26:34;;;;;;;10.10;7.50;;;15.60;99.90;;;;;;5091457;27;20234;-77
2023/05/15 08:29:23;;;;;;;12.55;7.45;;;15.60;99.90;;;;;;5107552;27;20242;-81
2023/05/15 08:32:12;;;;;;;10.15;7.55;;;15.40;99.90;;;;;;5088017;28;20243;-82
2023/05/15 08:35:03;;;;;;;11.18;7.55;;;15.40;99.90;;;;;;5090888;28;20323;-78
2023/05/15 08:37:52;;;;;;;10.40;7.70;;;15.50;99.90;;;;;;5105706;28;20935;-78
2023/05/15 08:40:46;;;;;;;13.80;8.23;;;15.50;99.90;;;;;;5069088;28;20248;-82
2023/05/15 08:43:37;;;;;;;10.13;7.28;;;15.60;99.90;;;;;;5097365;27;20218;-81
2023/05/15 08:46:28;;;;;;;11.13;6.97;;;15.70;99.90;;;;;;5109116;28;20313;-83
2023/05/15 08:49:27;;;;;;;11.65;7.32;;;15.40;99.90;;;;;;5098726;27;20667;-81
2023/05/15 08:52:17;;;;;;;7.78;6.88;;;15.30;99.90;;;;;;5088867;28;20869;-77
2023/05/15 08:55:06;;;;;;;11.40;7.35;;;15.00;99.90;;;;;;5085393;28;20697;-79
2023/05/15 08:57:55;;;;;;;10.73;7.80;;;14.80;99.90;;;;;;5076801;28;20260;-77
2023/05/15 09:00:45;;;;;;;15.70;8.73;;;14.70;99.90;;;;;;5087192;28;20229;-75
2023/05/15 09:03:33;;;;;;;12.15;7.90;;;14.80;99.90;;;;;;5095596;28;20235;-77
2023/05/15 09:06:24;;;;;;;14.57;8.60;;;14.90;99.90;;;;;;5071784;28;20226;-76
2023/05/15 09:09:15;;;;;;;15.75;10.32;;;14.70;99.90;;;;;;5069126;28;20285;-77
2023/05/15 09:12:05;;;;;;;16.27;12.80;;;14.60;99.90;;;;;;5073608;28;20926;-79
2023/05/15 09:15:09;;;;;;;19.35;15.52;;;14.50;99.90;;;;;;5099505;27;20235;-79
2023/05/15 09:17:59;;;;;;;23.08;16.15;;;14.70;99.90;;;;;;5089892;27;20342;-80
2023/05/15 09:20:48;;;;;;;18.88;13.90;;;14.70;99.90;;;;;;5103122;28;20234;-78
2023/05/15 09:23:37;;;;;;;17.38;14.23;;;14.40;99.90;;;;;;5101568;27;20214;-78
2023/05/15 09:26:27;;;;;;;20.00;17.90;;;14.10;99.90;;;;;;5099405;28;20237;-77
2023/05/15 09:29:17;;;;;;;22.00;17.95;;;14.10;99.90;;;;;;5086085;28;20222;-78
2023/05/15 09:32:08;;;;;;;16.70;14.45;;;14.10;99.90;;;;;;5088270;28;20368;-76
2023/05/15 09:34:58;;;;;;;20.65;18.60;;;13.60;99.90;;;;;;5105334;27;20318;-77
2023/05/15 09:37:47;;;;;;;27.98;22.50;;;13.70;99.90;;;;;;5103967;27;20226;-76
2023/05/15 09:40:36;;;;;;;22.23;18.95;;;13.80;99.90;;;;;;5098957;28;20243;-76
2023/05/15 09:43:28;;;;;;;26.13;23.08;;;13.60;99.90;;;;;;5105115;27;20222;-75
2023/05/15 09:46:17;;;;;;;23.58;20.00;;;13.80;99.90;;;;;;5067466;28;20238;-73
2023/05/15 09:49:06;;;;;;;23.25;19.15;;;13.70;99.90;;;;;;5096261;28;20594;-75
2023/05/15 09:51:58;;;;;;;28.67;23.08;;;13.60;99.90;;;;;;5077310;28;20261;-77
2023/05/15 09:54:47;;;;;;;30.30;26.73;;;13.70;99.90;;;;;;5082484;28;20296;-77
2023/05/15 09:57:38;;;;;;;29.95;26.05;;;14.10;99.90;;;;;;5080813;28;20283;-75
2023/05/15 10:00:31;;;;;;;31.35;25.38;;;14.20;99.90;;;;;;5091491;28;20219;-74
2023/05/15 10:03:20;;;;;;;26.77;23.90;;;14.20;99.90;;;;;;5087471;28;20216;-78
2023/05/15 10:06:18;;;;;;;31.92;25.30;;;14.30;99.90;;;;;;5081185;28;20594;-78
2023/05/15 10:09:09;;;;;;;22.25;20.00;;;14.30;99.90;;;;;;5092422;28;20231;-77
2023/05/15 10:11:58;;;;;;;25.10;22.52;;;14.30;99.90;;;;;;5086032;28;20307;-80
2023/05/15 10:14:48;;;;;;;29.48;21.58;;;14.30;99.90;;;;;;5100872;28;20264;-85
2023/05/15 10:17:39;;;;;;;20.48;18.30;;;14.30;99.90;;;;;;5081828;28;20223;-78
2023/05/15 10:20:28;;;;;;;28.33;23.95;;;14.00;99.90;;;;;;5102188;27;20692;-76
2023/05/15 10:23:22;;;;;;;29.30;23.23;;;14.20;99.90;;;;;;5103642;27;20218;-81
2023/05/15 10:26:17;;;;;;;22.75;20.30;;;14.10;99.90;;;;;;5098406;28;20230;-80
2023/05/15 10:29:07;;;;;;;27.55;23.38;;;14.00;99.90;;;;;;5100963;27;20646;-80
2023/05/15 10:31:57;;;;;;;22.52;17.67;;;14.10;99.90;;;;;;5084386;28;20230;-81
2023/05/15 10:34:48;;;;;;;24.13;21.58;;;14.00;99.90;;;;;;5099174;27;20222;-79
2023/05/15 10:37:38;;;;;;;27.33;23.45;;;13.90;99.90;;;;;;5103402;27;20226;-80
2023/05/15 10:40:29;;;;;;;25.73;23.02;;;14.00;99.90;;;;;;5100484;28;20226;-79
2023/05/15 10:43:20;;;;;;;24.80;21.02;;;14.00;99.90;;;;;;5092321;27;20210;-77
2023/05/15 10:46:10;;;;;;;26.42;22.17;;;13.90;99.90;;;;;;5102787;27;20227;-76
2023/05/15 10:48:59;;;;;;;27.20;21.45;;;14.00;99.90;;;;;;5106895;27;20360;-78
2023/05/15 10:51:50;;;;;;;23.77;21.10;;;14.00;99.90;;;;;;5099967;28;20310;-76
2023/05/15 10:54:39;;;;;;;27.80;23.35;;;13.90;99.90;;;;;;5112099;27;20227;-78
2023/05/15 10:57:29;;;;;;;26.10;21.95;;;13.90;99.90;;;;;;5104859;28;20222;-78
2023/05/15 11:00:31;;;;;;;25.52;22.90;;;14.00;99.90;;;;;;5064173;28;20314;-78
2023/05/15 11:03:36;;;;;;;28.73;23.30;;;13.90;99.90;;;;;;5072896;28;20504;-77
2023/05/15 11:06:38;;;;;;;29.63;25.13;;;13.80;99.90;;;;;;5082958;28;20220;-76
2023/05/15 11:09:39;;;;;;;30.15;24.95;;;13.80;99.90;;;;;;5084326;28;20227;-77
2023/05/15 11:12:57;;;;;;;28.02;24.63;;;13.90;99.90;;;;;;5088876;28;20246;-77
2023/05/15 11:15:47;;;;;;;28.95;25.30;;;13.70;99.90;;;;;;5057933;28;20223;-73
2023/05/15 11:18:37;;;;;;;36.03;26.20;;;13.60;99.90;;;;;;5084571;28;20224;-74
2023/05/15 11:21:32;;;;;;;37.45;28.60;;;13.60;99.90;;;;;;5083455;28;20289;-73
2023/05/15 11:24:21;;;;;;;35.58;27.30;;;13.70;99.90;;;;;;5075747;28;20926;-76
2023/05/15 11:27:16;;;;;;;38.55;30.40;;;13.70;99.90;;;;;;5095926;28;20310;-73
2023/05/15 11:30:10;;;;;;;35.10;27.35;;;13.80;99.90;;;;;;5084042;28;20239;-76
2023/05/15 11:33:02;;;;;;;33.38;26.17;;;13.60;99.90;;;;;;5100402;28;20326;-75
2023/05/15 11:35:59;;;;;;;37.00;28.52;;;13.60;99.90;;;;;;5094533;28;20278;-74
2023/05/15 11:38:50;;;;;;;33.38;29.08;;;13.60;99.90;;;;;;5080799;28;20246;-74
2023/05/15 11:41:40;;;;;;;31.30;26.90;;;13.80;99.90;;;;;;5095356;28;20340;-74
2023/05/15 11:44:30;;;;;;;32.40;26.63;;;13.60;99.90;;;;;;5095644;28;20681;-77
2023/05/15 11:47:21;;;;;;;38.13;30.27;;;13.60;99.90;;;;;;5082153;28;20222;-76
2023/05/15 11:50:11;;;;;;;34.35;28.02;;;13.70;99.90;;;;;;5080944;28;20227;-74
2023/05/15 11:53:05;;;;;;;41.88;32.10;;;13.60;99.90;;;;;;5082228;28;20222;-75
2023/05/15 11:55:54;;;;;;;35.08;27.48;;;13.70;99.90;;;;;;5079553;28;20272;-79
2023/05/15 11:58:43;;;;;;;37.10;29.08;;;13.60;99.90;;;;;;5098103;28;20222;-77
2023/05/15 12:01:41;;;;;;;43.53;33.00;;;13.50;99.90;;;;;;5077630;28;20254;-75
2023/05/15 12:04:34;;;;;;;43.88;34.75;;;13.60;99.90;;;;;;5058256;28;20224;-74
2023/05/15 12:07:22;;;;;;;38.90;30.95;;;13.80;99.90;;;;;;5054770;28;20364;-75
2023/05/15 12:10:12;;;;;;;35.45;29.80;;;13.60;99.90;;;;;;5101796;28;20221;-76
2023/05/15 12:13:01;;;;;;;43.33;32.05;;;13.70;99.90;;;;;;5083230;28;20223;-76
2023/05/15 12:15:54;;;;;;;36.50;31.35;;;13.70;99.90;;;;;;5081540;28;20222;-76
2023/05/15 12:18:47;;;;;;;46.65;34.88;;;13.60;99.90;;;;;;5061261;28;20219;-77
2023/05/15 12:21:42;;;;;;;45.63;34.53;;;13.80;99.90;;;;;;5080879;28;20231;-77
2023/05/15 12:24:31;;;;;;;45.65;34.13;;;13.80;99.90;;;;;;5058492;28;20227;-77
2023/05/15 12:27:20;;;;;;;39.17;30.90;;;13.90;99.90;;;;;;5066691;28;20698;-78
2023/05/15 12:30:11;;;;;;;46.07;37.00;;;13.80;99.90;;;;;;5054871;28;21216;-76
2023/05/15 12:33:03;;;;;;;44.50;35.08;;;13.70;99.90;;;;;;5067702;28;20462;-77
2023/05/15 12:35:55;;;;;;;36.88;30.58;;;13.90;99.90;;;;;;5077277;28;20248;-78
2023/05/15 12:38:49;;;;;;;38.70;31.50;;;13.80;99.90;;;;;;5072523;28;20226;-78
2023/05/15 12:41:38;;;;;;;37.53;30.92;;;13.80;99.90;;;;;;5072142;28;20246;-77
2023/05/15 12:44:28;;;;;;;35.70;30.02;;;13.90;99.90;;;;;;5087599;28;20218;-79
2023/05/15 12:47:23;;;;;;;42.67;34.08;;;13.80;99.90;;;;;;5082805;28;20447;-76
2023/05/15 12:50:17;;;;;;;37.15;31.88;;;13.90;99.90;;;;;;5074599;28;20222;-78
2023/05/15 12:53:07;;;;;;;34.25;28.98;;;14.00;99.90;;;;;;5082220;28;20230;-77
2023/05/15 12:55:56;;;;;;;37.25;31.45;;;13.90;99.90;;;;;;5070615;28;20228;-78
2023/05/15 12:58:45;;;;;;;39.67;33.97;;;14.00;99.90;;;;;;5088467;28;20216;-76
2023/05/15 13:01:35;;;;;;;47.95;38.38;;;14.10;99.90;;;;;;5092677;28;20230;-78
2023/05/15 13:04:24;;;;;;;38.28;33.40;;;14.20;99.90;;;;;;5100273;28;20236;-78
2023/05/15 13:07:16;;;;;;;35.25;31.45;;;14.10;99.90;;;;;;5109286;27;20649;-80
2023/05/15 13:10:10;;;;;;;38.53;32.55;;;14.00;99.90;;;;;;5105291;27;20220;-79
2023/05/15 13:12:59;;;;;;;39.20;34.10;;;14.00;99.90;;;;;;5098239;27;20250;-78
2023/05/15 13:15:49;;;;;;;37.63;32.92;;;14.10;99.90;;;;;;5085820;28;20245;-79
2023/05/15 13:18:38;;;;;;;39.03;33.55;;;14.10;99.90;;;;;;5099383;28;20224;-79
2023/05/15 13:21:28;;;;;;;38.40;34.22;;;14.10;99.90;;;;;;5086389;28;20233;-79
2023/05/15 13:24:17;;;;;;;44.25;36.10;;;14.10;99.90;;;;;;5087445;28;20228;-79
2023/05/15 13:27:07;;;;;;;34.65;30.85;;;14.20;99.90;;;;;;5099124;27;20246;-79
2023/05/15 13:29:56;;;;;;;34.88;31.10;;;14.10;99.90;;;;;;5092352;28;20230;-79
2023/05/15 13:32:45;;;;;;;40.67;35.58;;;14.20;99.90;;;;;;5098241;28;20288;-79
2023/05/15 13:35:35;;;;;;;39.25;34.85;;;14.30;99.90;;;;;;5081978;28;20314;-80
2023/05/15 13:38:24;;;;;;;38.58;33.40;;;14.30;99.90;;;;;;5093142;27;20733;-79
2023/05/15 13:41:12;;;;;;;32.95;29.63;;;14.30;99.90;;;;;;5099109;27;20226;-80
2023/05/15 13:44:02;;;;;;;35.63;31.75;;;14.40;99.90;;;;;;5103210;27;21113;-79
2023/05/15 13:46:52;;;;;;;34.70;29.88;;;14.30;99.90;;;;;;5102598;27;20215;-79
2023/05/15 13:49:40;;;;;;;35.15;31.10;;;14.30;99.90;;;;;;5098317;27;20816;-80
2023/05/15 13:52:30;;;;;;;34.13;29.17;;;14.50;99.90;;;;;;5105321;27;20225;-83
2023/05/15 13:55:18;;;;;;;33.75;29.25;;;14.50;99.90;;;;;;5084535;28;20363;-79
2023/05/15 13:58:11;;;;;;;29.67;26.23;;;14.50;99.90;;;;;;5100216;27;20313;-79
2023/05/15 14:01:05;;;;;;;28.15;25.35;;;14.50;99.90;;;;;;5106460;27;20772;-78
2023/05/15 14:03:54;;;;;;;27.67;24.90;;;14.60;99.90;;;;;;5101237;27;20237;-78
2023/05/15 14:06:43;;;;;;;30.08;26.90;;;14.50;99.90;;;;;;5079788;28;20249;-75
2023/05/15 14:09:32;;;;;;;29.60;26.35;;;14.70;99.90;;;;;;5084951;28;20219;-80
2023/05/15 14:12:21;;;;;;;27.55;24.58;;;14.70;99.90;;;;;;5095209;27;20220;-78
2023/05/15 14:15:11;;;;;;;26.70;24.10;;;14.70;99.90;;;;;;5104076;27;20239;-79
2023/05/15 14:18:02;;;;;;;26.13;22.13;;;14.60;99.90;;;;;;5095527;28;20214;-79
2023/05/15 14:20:51;;;;;;;26.45;23.77;;;14.70;99.90;;;;;;5096733;28;20255;-79
2023/05/15 14:23:40;;;;;;;26.48;23.70;;;14.70;99.90;;;;;;5096282;28;20252;-80
2023/05/15 14:26:28;;;;;;;25.92;23.15;;;14.80;99.90;;;;;;5092704;27;20233;-78
2023/05/15 14:29:17;;;;;;;24.95;22.33;;;14.80;99.90;;;;;;5110166;27;20712;-79
2023/05/15 14:32:07;;;;;;;25.00;22.02;;;14.80;99.90;;;;;;5095230;28;20231;-78
2023/05/15 14:34:58;;;;;;;24.65;22.10;;;14.90;99.90;;;;;;5088909;28;20212;-76
2023/05/15 14:37:47;;;;;;;23.60;20.20;;;15.00;99.90;;;;;;5089973;27;20310;-79